sensor_id;sensor_type;location;lat;lon;timestamp;pressure;altitude;pressure_sealevel;temperature;humidity
70976;BME280;58635;51.198;6.010;2022-09-09T00:03:55;100671.25;;;20.26;59.52
70976;BME280;58635;51.198;6.010;2022-09-09T00:06:30;100673.34;;;20.24;59.27
70976;BME280;58635;51.198;6.010;2022-09-09T00:09:30;100669.66;;;20.20;59.43
70976;BME280;58635;51.198;6.010;2022-09-09T00:12:46;100669.13;;;20.18;59.50
70976;BME280;58635;51.198;6.010;2022-09-09T00:15:38;100662.06;;;20.13;59.65
70976;BME280;58635;51.198;6.010;2022-09-09T00:18:23;100660.97;;;20.09;60.00
70976;BME280;58635;51.198;6.010;2022-09-09T00:21:07;100660.72;;;20.06;59.89
70976;BME280;58635;51.198;6.010;2022-09-09T00:23:44;100661.75;;;20.05;59.77
70976;BME280;58635;51.198;6.010;2022-09-09T00:29:43;100659.09;;;20.00;59.76
70976;BME280;58635;51.198;6.010;2022-09-09T00:32:16;100659.38;;;19.98;59.98
70976;BME280;58635;51.198;6.010;2022-09-09T00:34:49;100658.84;;;19.96;59.99
70976;BME280;58635;51.198;6.010;2022-09-09T00:37:14;100658.00;;;19.85;59.82
70976;BME280;58635;51.198;6.010;2022-09-09T00:39:43;100648.59;;;19.90;60.13
70976;BME280;58635;51.198;6.010;2022-09-09T00:44:58;100648.88;;;19.93;60.16
70976;BME280;58635;51.198;6.010;2022-09-09T00:53:39;100639.91;;;19.84;60.37
70976;BME280;58635;51.198;6.010;2022-09-09T00:56:14;100640.94;;;19.83;60.09
70976;BME280;58635;51.198;6.010;2022-09-09T01:01:19;100639.13;;;19.78;60.52
70976;BME280;58635;51.198;6.010;2022-09-09T01:03:54;100632.03;;;19.79;60.46
70976;BME280;58635;51.198;6.010;2022-09-09T01:12:03;100626.47;;;19.75;60.78
70976;BME280;58635;51.198;6.010;2022-09-09T01:19:55;100641.19;;;19.71;60.68
70976;BME280;58635;51.198;6.010;2022-09-09T01:22:33;100636.97;;;19.70;60.71
70976;BME280;58635;51.198;6.010;2022-09-09T01:25:20;100639.59;;;19.70;60.83
70976;BME280;58635;51.198;6.010;2022-09-09T01:27:49;100637.25;;;19.69;60.89
70976;BME280;58635;51.198;6.010;2022-09-09T01:30:17;100636.97;;;19.70;61.05
70976;BME280;58635;51.198;6.010;2022-09-09T01:32:44;100641.19;;;19.71;60.76
70976;BME280;58635;51.198;6.010;2022-09-09T01:35:15;100639.59;;;19.70;60.61
70976;BME280;58635;51.198;6.010;2022-09-09T01:37:43;100633.25;;;19.61;60.83
70976;BME280;58635;51.198;6.010;2022-09-09T01:40:08;100633.53;;;19.65;60.85
70976;BME280;58635;51.198;6.010;2022-09-09T01:42:34;100637.50;;;19.67;60.69
70976;BME280;58635;51.198;6.010;2022-09-09T01:44:59;100635.66;;;19.68;60.86
70976;BME280;58635;51.198;6.010;2022-09-09T01:47:25;100634.88;;;19.67;60.82
70976;BME280;58635;51.198;6.010;2022-09-09T01:49:50;100628.06;;;19.66;60.69
70976;BME280;58635;51.198;6.010;2022-09-09T01:52:16;100635.13;;;19.66;60.67
70976;BME280;58635;51.198;6.010;2022-09-09T01:54:41;100636.72;;;19.67;60.96
70976;BME280;58635;51.198;6.010;2022-09-09T02:00:06;100629.06;;;19.65;60.94
70976;BME280;58635;51.198;6.010;2022-09-09T02:07:52;100628.28;;;19.65;60.70
70976;BME280;58635;51.198;6.010;2022-09-09T02:10:25;100622.25;;;19.64;60.86
70976;BME280;58635;51.198;6.010;2022-09-09T02:13:01;100624.09;;;19.64;60.74
70976;BME280;58635;51.198;6.010;2022-09-09T02:18:57;100623.28;;;19.58;61.06
70976;BME280;58635;51.198;6.010;2022-09-09T02:21:22;100620.94;;;19.56;61.18
70976;BME280;58635;51.198;6.010;2022-09-09T02:23:50;100617.50;;;19.56;60.93
70976;BME280;58635;51.198;6.010;2022-09-09T02:26:19;100615.69;;;19.56;60.83
70976;BME280;58635;51.198;6.010;2022-09-09T02:28:50;100619.09;;;19.57;60.99
70976;BME280;58635;51.198;6.010;2022-09-09T02:31:19;100615.69;;;19.56;61.26
70976;BME280;58635;51.198;6.010;2022-09-09T02:33:54;100613.06;;;19.56;61.16
70976;BME280;58635;51.198;6.010;2022-09-09T02:36:23;100614.63;;;19.58;60.84
70976;BME280;58635;51.198;6.010;2022-09-09T02:38:49;100612.00;;;19.58;61.23
70976;BME280;58635;51.198;6.010;2022-09-09T02:41:26;100607.56;;;19.58;61.03
70976;BME280;58635;51.198;6.010;2022-09-09T02:43:53;100599.38;;;19.54;61.21
70976;BME280;58635;51.198;6.010;2022-09-09T02:48:56;100603.34;;;19.57;61.37
70976;BME280;58635;51.198;6.010;2022-09-09T02:51:37;100596.53;;;19.56;61.28
70976;BME280;58635;51.198;6.010;2022-09-09T02:54:10;100604.06;;;19.52;61.51
70976;BME280;58635;51.198;6.010;2022-09-09T02:56:47;100605.91;;;19.52;61.19
70976;BME280;58635;51.198;6.010;2022-09-09T02:59:15;100605.91;;;19.52;61.15
70976;BME280;58635;51.198;6.010;2022-09-09T03:01:41;100608.31;;;19.53;61.32
70976;BME280;58635;51.198;6.010;2022-09-09T03:04:06;100603.06;;;19.53;61.25
70976;BME280;58635;51.198;6.010;2022-09-09T03:06:32;100609.31;;;19.52;61.45
70976;BME280;58635;51.198;6.010;2022-09-09T03:08:57;100608.00;;;19.50;61.66
70976;BME280;58635;51.198;6.010;2022-09-09T03:11:26;100606.97;;;19.51;61.64
70976;BME280;58635;51.198;6.010;2022-09-09T03:13:53;100603.53;;;19.50;61.68
70976;BME280;58635;51.198;6.010;2022-09-09T03:16:20;100604.06;;;19.52;61.53
70976;BME280;58635;51.198;6.010;2022-09-09T03:18:46;100605.13;;;19.51;61.69
70976;BME280;58635;51.198;6.010;2022-09-09T03:21:12;100606.69;;;19.52;61.59
70976;BME280;58635;51.198;6.010;2022-09-09T03:23:37;100602.50;;;19.51;61.58
70976;BME280;58635;51.198;6.010;2022-09-09T03:26:02;100606.69;;;19.52;61.51
70976;BME280;58635;51.198;6.010;2022-09-09T03:28:28;100610.09;;;19.53;61.65
70976;BME280;58635;51.198;6.010;2022-09-09T03:31:00;100612.72;;;19.53;61.53
70976;BME280;58635;51.198;6.010;2022-09-09T03:33:26;100613.00;;;19.51;61.63
70976;BME280;58635;51.198;6.010;2022-09-09T03:35:52;100620.84;;;19.51;61.65
70976;BME280;58635;51.198;6.010;2022-09-09T03:38:18;100610.63;;;19.50;61.87
70976;BME280;58635;51.198;6.010;2022-09-09T03:40:55;100621.91;;;19.50;61.70
70976;BME280;58635;51.198;6.010;2022-09-09T03:43:26;100623.22;;;19.48;61.83
70976;BME280;58635;51.198;6.010;2022-09-09T03:45:51;100618.75;;;19.48;62.08
70976;BME280;58635;51.198;6.010;2022-09-09T03:48:18;100620.06;;;19.46;62.10
70976;BME280;58635;51.198;6.010;2022-09-09T03:50:47;100619.00;;;19.47;61.88
70976;BME280;58635;51.198;6.010;2022-09-09T03:53:14;100626.09;;;19.46;61.91
70976;BME280;58635;51.198;6.010;2022-09-09T03:55:44;100619.28;;;19.45;62.10
70976;BME280;58635;51.198;6.010;2022-09-09T03:58:11;100612.97;;;19.46;62.22
70976;BME280;58635;51.198;6.010;2022-09-09T04:00:36;100621.91;;;19.50;62.22
70976;BME280;58635;51.198;6.010;2022-09-09T04:03:02;100613.00;;;19.51;61.94
70976;BME280;58635;51.198;6.010;2022-09-09T04:05:27;100615.63;;;19.51;62.17
70976;BME280;58635;51.198;6.010;2022-09-09T04:07:53;100616.41;;;19.52;62.18
70976;BME280;58635;51.198;6.010;2022-09-09T04:10:19;100617.19;;;19.52;62.26
70976;BME280;58635;51.198;6.010;2022-09-09T04:12:46;100613.53;;;19.53;62.26
70976;BME280;58635;51.198;6.010;2022-09-09T04:15:11;100612.28;;;19.56;62.13
70976;BME280;58635;51.198;6.010;2022-09-09T04:17:37;100624.34;;;19.57;62.16
70976;BME280;58635;51.198;6.010;2022-09-09T04:20:03;100613.84;;;19.57;61.98
70976;BME280;58635;51.198;6.010;2022-09-09T04:22:29;100612.00;;;19.58;62.13
70976;BME280;58635;51.198;6.010;2022-09-09T04:24:54;100614.38;;;19.59;62.36
70976;BME280;58635;51.198;6.010;2022-09-09T04:27:20;100607.56;;;19.58;61.93
70976;BME280;58635;51.198;6.010;2022-09-09T04:29:45;100608.88;;;19.61;62.28
70976;BME280;58635;51.198;6.010;2022-09-09T04:32:10;100605.19;;;19.62;62.10
70976;BME280;58635;51.198;6.010;2022-09-09T04:34:36;100604.94;;;19.63;62.17
70976;BME280;58635;51.198;6.010;2022-09-09T04:37:02;100602.03;;;19.65;62.32
70976;BME280;58635;51.198;6.010;2022-09-09T04:39:27;100603.13;;;19.69;61.95
70976;BME280;58635;51.198;6.010;2022-09-09T04:41:53;100603.66;;;19.71;62.10
70976;BME280;58635;51.198;6.010;2022-09-09T04:44:19;100601.81;;;19.71;61.88
70976;BME280;58635;51.198;6.010;2022-09-09T04:46:44;100598.94;;;19.73;62.09
70976;BME280;58635;51.198;6.010;2022-09-09T04:49:10;100599.47;;;19.75;61.89
70976;BME280;58635;51.198;6.010;2022-09-09T04:51:35;100595.78;;;19.76;62.21
70976;BME280;58635;51.198;6.010;2022-09-09T04:54:00;100592.94;;;19.77;61.67
70976;BME280;58635;51.198;6.010;2022-09-09T04:56:26;100598.19;;;19.77;61.86
70976;BME280;58635;51.198;6.010;2022-09-09T04:58:54;100586.34;;;19.75;61.73
70976;BME280;58635;51.198;6.010;2022-09-09T05:01:21;100591.63;;;19.80;61.87
70976;BME280;58635;51.198;6.010;2022-09-09T05:03:48;100602.38;;;19.78;62.07
70976;BME280;58635;51.198;6.010;2022-09-09T05:06:18;100588.47;;;19.78;61.63
70976;BME280;58635;51.198;6.010;2022-09-09T05:08:44;100595.28;;;19.79;61.69
70976;BME280;58635;51.198;6.010;2022-09-09T05:11:21;100593.44;;;19.79;61.72
70976;BME280;58635;51.198;6.010;2022-09-09T05:13:48;100593.72;;;19.78;61.68
70976;BME280;58635;51.198;6.010;2022-09-09T05:16:16;100589.25;;;19.78;61.71
70976;BME280;58635;51.198;6.010;2022-09-09T05:18:42;100591.09;;;19.78;61.64
70976;BME280;58635;51.198;6.010;2022-09-09T05:21:09;100595.56;;;19.77;61.66
70976;BME280;58635;51.198;6.010;2022-09-09T05:23:35;100589.47;;;19.77;61.96
70976;BME280;58635;51.198;6.010;2022-09-09T05:26:01;100593.94;;;19.76;61.75
70976;BME280;58635;51.198;6.010;2022-09-09T05:28:27;100597.63;;;19.75;61.66
70976;BME280;58635;51.198;6.010;2022-09-09T05:31:05;100595.25;;;19.74;62.00
70976;BME280;58635;51.198;6.010;2022-09-09T05:33:33;100591.31;;;19.71;61.88
70976;BME280;58635;51.198;6.010;2022-09-09T05:36:04;100596.31;;;19.73;61.55
70976;BME280;58635;51.198;6.010;2022-09-09T05:38:30;100602.34;;;19.73;61.86
70976;BME280;58635;51.198;6.010;2022-09-09T05:40:56;100596.03;;;19.74;61.55
70976;BME280;58635;51.198;6.010;2022-09-09T05:43:22;100595.56;;;19.77;61.43
70976;BME280;58635;51.198;6.010;2022-09-09T05:45:58;100588.97;;;19.75;61.55
70976;BME280;58635;51.198;6.010;2022-09-09T05:48:27;100596.84;;;19.75;61.39
70976;BME280;58635;51.198;6.010;2022-09-09T05:50:53;100606.56;;;19.79;61.58
70976;BME280;58635;51.198;6.010;2022-09-09T05:53:19;100611.81;;;19.79;61.54
70976;BME280;58635;51.198;6.010;2022-09-09T05:55:45;100608.16;;;19.80;61.76
70976;BME280;58635;51.198;6.010;2022-09-09T05:58:11;100606.84;;;19.83;61.76
70976;BME280;58635;51.198;6.010;2022-09-09T06:00:36;100610.50;;;19.87;61.36
70976;BME280;58635;51.198;6.010;2022-09-09T06:03:03;100611.31;;;19.93;61.36
70976;BME280;58635;51.198;6.010;2022-09-09T06:05:29;100613.69;;;19.99;61.30
70976;BME280;58635;51.198;6.010;2022-09-09T06:07:55;100611.09;;;20.04;60.98
70976;BME280;58635;51.198;6.010;2022-09-09T06:10:21;100613.19;;;20.07;61.09
70976;BME280;58635;51.198;6.010;2022-09-09T06:12:46;100622.13;;;20.06;60.98
70976;BME280;58635;51.198;6.010;2022-09-09T06:15:12;100623.16;;;20.05;60.79
70976;BME280;58635;51.198;6.010;2022-09-09T06:17:37;100625.53;;;20.07;60.80
70976;BME280;58635;51.198;6.010;2022-09-09T06:20:04;100614.50;;;20.10;60.93
70976;BME280;58635;51.198;6.010;2022-09-09T06:22:30;100613.44;;;20.06;60.64
70976;BME280;58635;51.198;6.010;2022-09-09T06:24:56;100622.91;;;20.02;61.35
70976;BME280;58635;51.198;6.010;2022-09-09T06:27:21;100616.59;;;20.03;61.07
70976;BME280;58635;51.198;6.010;2022-09-09T06:29:47;100617.66;;;20.12;60.65
70976;BME280;58635;51.198;6.010;2022-09-09T06:32:13;100616.63;;;20.23;60.65
70976;BME280;58635;51.198;6.010;2022-09-09T06:34:38;100614.78;;;20.34;60.20
70976;BME280;58635;51.198;6.010;2022-09-09T06:37:04;100614.28;;;20.47;60.16
70976;BME280;58635;51.198;6.010;2022-09-09T06:39:29;100614.56;;;20.61;59.65
70976;BME280;58635;51.198;6.010;2022-09-09T06:41:55;100617.97;;;20.71;59.55
70976;BME280;58635;51.198;6.010;2022-09-09T06:44:20;100614.03;;;20.79;59.32
70976;BME280;58635;51.198;6.010;2022-09-09T06:46:47;100619.28;;;20.84;59.23
70976;BME280;58635;51.198;6.010;2022-09-09T06:49:13;100613.75;;;20.86;59.05
70976;BME280;58635;51.198;6.010;2022-09-09T06:51:39;100617.44;;;20.90;59.05
70976;BME280;58635;51.198;6.010;2022-09-09T06:54:11;100615.06;;;20.88;58.99
70976;BME280;58635;51.198;6.010;2022-09-09T06:56:39;100617.94;;;20.92;58.65
70976;BME280;58635;51.198;6.010;2022-09-09T06:59:09;100609.00;;;20.98;58.57
70976;BME280;58635;51.198;6.010;2022-09-09T07:01:37;100607.94;;;21.09;58.47
70976;BME280;58635;51.198;6.010;2022-09-09T07:04:03;100605.50;;;21.23;58.21
70976;BME280;58635;51.198;6.010;2022-09-09T07:06:31;100607.09;;;21.29;57.98
70976;BME280;58635;51.198;6.010;2022-09-09T07:08:59;100601.28;;;21.37;57.71
70976;BME280;58635;51.198;6.010;2022-09-09T07:11:27;100598.09;;;21.40;57.61
70976;BME280;58635;51.198;6.010;2022-09-09T07:13:54;100601.00;;;21.39;57.63
70976;BME280;58635;51.198;6.010;2022-09-09T07:16:21;100595.50;;;21.35;57.38
70976;BME280;58635;51.198;6.010;2022-09-09T07:18:48;100591.81;;;21.31;57.48
70976;BME280;58635;51.198;6.010;2022-09-09T07:21:16;100591.81;;;21.31;57.56
70976;BME280;58635;51.198;6.010;2022-09-09T07:23:41;100600.78;;;21.35;57.68
70976;BME280;58635;51.198;6.010;2022-09-09T07:26:15;100588.38;;;21.41;57.41
70976;BME280;58635;51.198;6.010;2022-09-09T07:28:42;100595.47;;;21.40;57.49
70976;BME280;58635;51.198;6.010;2022-09-09T07:31:14;100599.41;;;21.43;57.39
70976;BME280;58635;51.198;6.010;2022-09-09T07:33:42;100602.56;;;21.45;57.29
70976;BME280;58635;51.198;6.010;2022-09-09T07:36:12;100598.06;;;21.50;57.08
70976;BME280;58635;51.198;6.010;2022-09-09T07:38:39;100603.31;;;21.55;56.83
70976;BME280;58635;51.198;6.010;2022-09-09T07:41:10;100607.75;;;21.60;56.95
70976;BME280;58635;51.198;6.010;2022-09-09T07:43:39;100600.66;;;21.60;56.65
70976;BME280;58635;51.198;6.010;2022-09-09T07:46:05;100606.16;;;21.69;56.61
70976;BME280;58635;51.198;6.010;2022-09-09T07:48:31;100602.97;;;21.72;56.51
70976;BME280;58635;51.198;6.010;2022-09-09T07:51:12;100612.41;;;21.78;56.31
70976;BME280;58635;51.198;6.010;2022-09-09T07:53:41;100615.28;;;21.82;56.07
70976;BME280;58635;51.198;6.010;2022-09-09T07:56:09;100606.84;;;21.85;55.92
70976;BME280;58635;51.198;6.010;2022-09-09T07:58:36;100603.88;;;21.97;55.80
70976;BME280;58635;51.198;6.010;2022-09-09T08:01:12;100609.84;;;22.17;55.57
70976;BME280;58635;51.198;6.010;2022-09-09T08:03:38;100619.75;;;22.31;54.72
70976;BME280;58635;51.198;6.010;2022-09-09T08:06:05;100610.50;;;22.33;54.27
70976;BME280;58635;51.198;6.010;2022-09-09T08:08:32;100622.59;;;22.34;54.24
70976;BME280;58635;51.198;6.010;2022-09-09T08:11:07;100627.09;;;22.34;54.27
70976;BME280;58635;51.198;6.010;2022-09-09T08:13:35;100620.81;;;22.25;54.52
70976;BME280;58635;51.198;6.010;2022-09-09T08:16:10;100621.44;;;22.16;54.24
70976;BME280;58635;51.198;6.010;2022-09-09T08:18:36;100625.97;;;22.06;54.44
70976;BME280;58635;51.198;6.010;2022-09-09T08:21:08;100624.91;;;22.02;54.21
70976;BME280;58635;51.198;6.010;2022-09-09T08:23:38;100630.25;;;21.92;54.22
70976;BME280;58635;51.198;6.010;2022-09-09T08:26:06;100636.31;;;21.87;54.38
70976;BME280;58635;51.198;6.010;2022-09-09T08:28:32;100642.63;;;21.86;54.54
70976;BME280;58635;51.198;6.010;2022-09-09T08:31:05;100642.09;;;21.89;54.44
70976;BME280;58635;51.198;6.010;2022-09-09T08:33:32;100644.47;;;21.91;54.12
70976;BME280;58635;51.198;6.010;2022-09-09T08:35:58;100642.34;;;21.93;54.19
70976;BME280;58635;51.198;6.010;2022-09-09T08:38:24;100645.22;;;21.96;53.73
70976;BME280;58635;51.198;6.010;2022-09-09T08:40:53;100652.28;;;22.01;53.54
70976;BME280;58635;51.198;6.010;2022-09-09T08:43:24;100643.88;;;21.99;53.71
70976;BME280;58635;51.198;6.010;2022-09-09T08:45:57;100637.28;;;22.01;53.58
70976;BME280;58635;51.198;6.010;2022-09-09T08:49:16;100640.44;;;22.08;53.36
70976;BME280;58635;51.198;6.010;2022-09-09T08:51:48;100648.84;;;22.15;53.58
70976;BME280;58635;51.198;6.010;2022-09-09T08:54:14;100652.44;;;22.25;53.28
70976;BME280;58635;51.198;6.010;2022-09-09T08:56:40;100646.31;;;22.39;52.96
70976;BME280;58635;51.198;6.010;2022-09-09T08:59:11;100647.75;;;22.56;52.60
70976;BME280;58635;51.198;6.010;2022-09-09T09:01:44;100639.69;;;22.71;52.21
70976;BME280;58635;51.198;6.010;2022-09-09T09:04:37;100648.06;;;22.83;51.46
70976;BME280;58635;51.198;6.010;2022-09-09T09:08:03;100651.16;;;22.90;51.57
70976;BME280;58635;51.198;6.010;2022-09-09T09:12:39;100645.66;;;22.87;50.92
70976;BME280;58635;51.198;6.010;2022-09-09T09:15:27;100643.09;;;22.76;50.92
70976;BME280;58635;51.198;6.010;2022-09-09T09:17:55;100649.47;;;22.70;50.87
70976;BME280;58635;51.198;6.010;2022-09-09T09:20:31;100651.59;;;22.68;51.05
70976;BME280;58635;51.198;6.010;2022-09-09T09:23:02;100654.50;;;22.67;51.04
70976;BME280;58635;51.198;6.010;2022-09-09T09:25:35;100650.31;;;22.61;51.23
70976;BME280;58635;51.198;6.010;2022-09-09T09:28:17;100651.72;;;22.53;51.07
70976;BME280;58635;51.198;6.010;2022-09-09T09:30:51;100659.44;;;22.44;51.01
70976;BME280;58635;51.198;6.010;2022-09-09T09:33:23;100657.13;;;22.38;51.69
70976;BME280;58635;51.198;6.010;2022-09-09T09:35:52;100665.88;;;22.28;51.60
70976;BME280;58635;51.198;6.010;2022-09-09T09:38:26;100664.09;;;22.13;51.57
70976;BME280;58635;51.198;6.010;2022-09-09T09:40:57;100660.75;;;22.03;52.20
70976;BME280;58635;51.198;6.010;2022-09-09T09:43:28;100659.94;;;22.02;52.36
70976;BME280;58635;51.198;6.010;2022-09-09T09:45:54;100657.31;;;22.07;52.33
70976;BME280;58635;51.198;6.010;2022-09-09T09:48:20;100650.34;;;22.22;52.12
70976;BME280;58635;51.198;6.010;2022-09-09T09:50:53;100660.78;;;22.37;51.73
70976;BME280;58635;51.198;6.010;2022-09-09T09:53:28;100660.44;;;22.48;51.67
70976;BME280;58635;51.198;6.010;2022-09-09T09:56:14;100652.97;;;22.61;51.42
70976;BME280;58635;51.198;6.010;2022-09-09T10:01:21;100653.59;;;22.87;51.18
70976;BME280;58635;51.198;6.010;2022-09-09T10:03:51;100661.22;;;22.88;50.95
70976;BME280;58635;51.198;6.010;2022-09-09T10:06:17;100659.13;;;22.85;50.65
70976;BME280;58635;51.198;6.010;2022-09-09T10:08:46;100662.28;;;22.82;51.09
70976;BME280;58635;51.198;6.010;2022-09-09T10:11:45;100656.00;;;22.78;50.98
70976;BME280;58635;51.198;6.010;2022-09-09T10:14:21;100656.00;;;22.78;50.77
70976;BME280;58635;51.198;6.010;2022-09-09T10:19:36;100660.88;;;22.95;50.63
70976;BME280;58635;51.198;6.010;2022-09-09T10:22:27;100664.28;;;22.95;50.85
70976;BME280;58635;51.198;6.010;2022-09-09T10:27:56;100673.59;;;22.83;51.49
70976;BME280;58635;51.198;6.010;2022-09-09T10:30:42;100683.44;;;22.72;52.08
70976;BME280;58635;51.198;6.010;2022-09-09T10:33:31;100676.47;;;22.57;53.00
70976;BME280;58635;51.198;6.010;2022-09-09T10:38:39;100671.81;;;22.44;54.13
70976;BME280;58635;51.198;6.010;2022-09-09T10:41:17;100674.19;;;22.45;53.89
70976;BME280;58635;51.198;6.010;2022-09-09T10:46:33;100662.22;;;22.58;54.34
70976;BME280;58635;51.198;6.010;2022-09-09T10:52:13;100665.84;;;22.67;54.09
70976;BME280;58635;51.198;6.010;2022-09-09T10:54:56;100657.88;;;22.72;53.91
70976;BME280;58635;51.198;6.010;2022-09-09T11:02:41;100652.44;;;22.64;53.52
70976;BME280;58635;51.198;6.010;2022-09-09T11:05:17;100644.28;;;22.60;53.35
70976;BME280;58635;51.198;6.010;2022-09-09T11:07:48;100654.91;;;22.50;53.26
70976;BME280;58635;51.198;6.010;2022-09-09T11:10:23;100659.19;;;22.41;53.43
70976;BME280;58635;51.198;6.010;2022-09-09T11:12:52;100655.00;;;22.35;53.51
70976;BME280;58635;51.198;6.010;2022-09-09T11:15:31;100652.69;;;22.28;53.48
70976;BME280;58635;51.198;6.010;2022-09-09T11:18:01;100653.22;;;22.25;53.76
70976;BME280;58635;51.198;6.010;2022-09-09T11:20:29;100656.13;;;22.24;53.95
70976;BME280;58635;51.198;6.010;2022-09-09T11:23:11;100653.00;;;22.22;53.61
70976;BME280;58635;51.198;6.010;2022-09-09T11:25:48;100654.34;;;22.19;53.85
70976;BME280;58635;51.198;6.010;2022-09-09T11:28:51;100673.59;;;22.14;53.87
70976;BME280;58635;51.198;6.010;2022-09-09T11:31:32;100681.03;;;22.02;55.07
70976;BME280;58635;51.198;6.010;2022-09-09T11:37:29;100686.19;;;21.68;56.16
70976;BME280;58635;51.198;6.010;2022-09-09T11:40:16;100685.91;;;21.65;56.57
70976;BME280;58635;51.198;6.010;2022-09-09T11:42:42;100675.38;;;21.65;56.93
70976;BME280;58635;51.198;6.010;2022-09-09T11:47:51;100675.34;;;21.80;57.11
70976;BME280;58635;51.198;6.010;2022-09-09T11:52:45;100684.34;;;22.23;56.88
70976;BME280;58635;51.198;6.010;2022-09-09T11:55:33;100670.44;;;22.52;56.53
70976;BME280;58635;51.198;6.010;2022-09-09T11:58:15;100668.16;;;22.74;56.04
70976;BME280;58635;51.198;6.010;2022-09-09T12:00:47;100673.06;;;22.91;56.08
70976;BME280;58635;51.198;6.010;2022-09-09T12:06:27;100675.50;;;23.11;55.63
70976;BME280;58635;51.198;6.010;2022-09-09T12:09:50;100672.75;;;23.21;55.85
70976;BME280;58635;51.198;6.010;2022-09-09T12:12:26;100667.63;;;23.30;55.33
70976;BME280;58635;51.198;6.010;2022-09-09T12:15:17;100662.81;;;23.37;55.02
70976;BME280;58635;51.198;6.010;2022-09-09T12:17:48;100665.91;;;23.44;54.82
70976;BME280;58635;51.198;6.010;2022-09-09T12:20:19;100665.06;;;23.49;54.61
70976;BME280;58635;51.198;6.010;2022-09-09T12:23:17;100671.63;;;23.51;54.78
70976;BME280;58635;51.198;6.010;2022-09-09T12:28:21;100674.47;;;23.55;53.98
70976;BME280;58635;51.198;6.010;2022-09-09T12:31:07;100663.91;;;23.55;53.73
70976;BME280;58635;51.198;6.010;2022-09-09T12:33:36;100657.19;;;23.44;53.57
70976;BME280;58635;51.198;6.010;2022-09-09T12:36:03;100659.19;;;23.33;53.74
70976;BME280;58635;51.198;6.010;2022-09-09T12:38:36;100661.34;;;23.26;53.39
70976;BME280;58635;51.198;6.010;2022-09-09T12:41:02;100656.94;;;23.21;53.55
70976;BME280;58635;51.198;6.010;2022-09-09T12:43:28;100652.44;;;23.22;53.41
70976;BME280;58635;51.198;6.010;2022-09-09T12:45:57;100655.50;;;23.29;53.22
70976;BME280;58635;51.198;6.010;2022-09-09T12:48:44;100652.72;;;23.44;53.44
70976;BME280;58635;51.198;6.010;2022-09-09T12:51:27;100656.06;;;23.74;53.15
70976;BME280;58635;51.198;6.010;2022-09-09T12:53:54;100650.88;;;24.06;52.80
70976;BME280;58635;51.198;6.010;2022-09-09T12:56:22;100644.47;;;24.26;51.96
70976;BME280;58635;51.198;6.010;2022-09-09T12:58:51;100642.91;;;24.25;51.70
70976;BME280;58635;51.198;6.010;2022-09-09T13:03:50;100644.16;;;24.14;51.11
70976;BME280;58635;51.198;6.010;2022-09-09T13:06:30;100649.44;;;24.14;52.00
70976;BME280;58635;51.198;6.010;2022-09-09T13:08:58;100652.31;;;24.17;52.04
70976;BME280;58635;51.198;6.010;2022-09-09T13:11:28;100636.94;;;24.19;51.89
70976;BME280;58635;51.198;6.010;2022-09-09T13:13:57;100641.50;;;24.14;51.64
70976;BME280;58635;51.198;6.010;2022-09-09T13:16:26;100641.94;;;24.02;51.40
70976;BME280;58635;51.198;6.010;2022-09-09T13:18:55;100662.00;;;23.84;51.84
70976;BME280;58635;51.198;6.010;2022-09-09T13:21:31;100666.81;;;23.58;51.37
70976;BME280;58635;51.198;6.010;2022-09-09T13:23:57;100669.09;;;23.17;52.32
70976;BME280;58635;51.198;6.010;2022-09-09T13:26:28;100661.00;;;22.80;53.00
70976;BME280;58635;51.198;6.010;2022-09-09T13:28:55;100668.31;;;22.54;53.80
70976;BME280;58635;51.198;6.010;2022-09-09T13:31:36;100657.66;;;22.35;54.05
70976;BME280;58635;51.198;6.010;2022-09-09T13:34:28;100654.38;;;22.14;54.32
70976;BME280;58635;51.198;6.010;2022-09-09T13:37:05;100652.28;;;22.01;54.91
70976;BME280;58635;51.198;6.010;2022-09-09T13:39:35;100647.63;;;21.93;55.21
70976;BME280;58635;51.198;6.010;2022-09-09T13:42:03;100647.66;;;21.82;55.50
70976;BME280;58635;51.198;6.010;2022-09-09T13:44:33;100644.81;;;21.79;55.90
70976;BME280;58635;51.198;6.010;2022-09-09T13:49:29;100634.56;;;21.72;56.02
70976;BME280;58635;51.198;6.010;2022-09-09T13:52:10;100645.09;;;21.72;56.26
70976;BME280;58635;51.198;6.010;2022-09-09T13:54:37;100638.22;;;21.76;56.45
70976;BME280;58635;51.198;6.010;2022-09-09T13:57:03;100628.69;;;21.85;56.55
70976;BME280;58635;51.198;6.010;2022-09-09T13:59:29;100640.72;;;22.07;56.35
70976;BME280;58635;51.198;6.010;2022-09-09T14:01:55;100631.63;;;22.28;56.27
70976;BME280;58635;51.198;6.010;2022-09-09T14:04:21;100630.91;;;22.52;55.87
70976;BME280;58635;51.198;6.010;2022-09-09T14:06:47;100621.25;;;22.71;55.48
70976;BME280;58635;51.198;6.010;2022-09-09T14:09:14;100622.09;;;22.95;54.83
70976;BME280;58635;51.198;6.010;2022-09-09T14:11:40;100624.03;;;23.14;54.21
70976;BME280;58635;51.198;6.010;2022-09-09T14:14:06;100614.31;;;23.33;54.04
70976;BME280;58635;51.198;6.010;2022-09-09T14:16:31;100621.94;;;23.58;53.98
70976;BME280;58635;51.198;6.010;2022-09-09T14:18:58;100617.97;;;23.80;53.38
70976;BME280;58635;51.198;6.010;2022-09-09T14:21:24;100611.38;;;23.96;53.08
70976;BME280;58635;51.198;6.010;2022-09-09T14:23:50;100618.00;;;24.12;52.64
70976;BME280;58635;51.198;6.010;2022-09-09T14:26:15;100611.50;;;24.24;52.18
70976;BME280;58635;51.198;6.010;2022-09-09T14:28:41;100619.00;;;24.35;52.30
70976;BME280;58635;51.198;6.010;2022-09-09T14:31:07;100620.03;;;24.39;51.94
70976;BME280;58635;51.198;6.010;2022-09-09T14:33:32;100614.53;;;24.49;52.29
70976;BME280;58635;51.198;6.010;2022-09-09T14:36:03;100622.00;;;24.61;52.02